createdAt,value
2018-02-10T00:02:14.883Z,23.97
2018-02-10T00:04:43.139Z,25.37
2018-02-10T00:07:11.407Z,25.23
2018-02-10T00:09:39.690Z,25.60
2018-02-10T00:12:08.012Z,26.97
2018-02-10T00:14:37.820Z,25.13
2018-02-10T00:17:06.159Z,26.13
2018-02-10T00:19:34.423Z,26.13
2018-02-10T00:22:02.691Z,27.90
2018-02-10T00:24:31.856Z,26.10
2018-02-10T00:27:00.134Z,26.10
2018-02-10T00:29:29.179Z,28.17
2018-02-10T00:31:57.460Z,28.47
2018-02-10T00:34:25.831Z,27.00
2018-02-10T00:36:54.090Z,26.47
2018-02-10T00:39:22.414Z,27.60
2018-02-10T00:41:50.671Z,29.33
2018-02-10T00:44:18.947Z,28.17
2018-02-10T00:46:47.193Z,25.30
2018-02-10T00:49:15.460Z,25.73
2018-02-10T00:51:43.734Z,28.20
2018-02-10T00:54:12.035Z,29.73
2018-02-10T00:56:40.296Z,27.20
2018-02-10T00:59:08.563Z,29.63
2018-02-10T01:01:36.823Z,27.67
2018-02-10T01:04:05.114Z,27.23
2018-02-10T01:06:33.370Z,29.43
2018-02-10T01:09:01.635Z,30.17
2018-02-10T01:11:29.950Z,32.37
2018-02-10T01:13:58.255Z,31.43
2018-02-10T01:16:26.527Z,29.57
2018-02-10T01:18:54.814Z,28.57
2018-02-10T01:21:23.119Z,31.13
2018-02-10T01:23:52.248Z,31.67
2018-02-10T01:26:20.514Z,32.17
2018-02-10T01:28:48.807Z,32.20
2018-02-10T01:31:17.070Z,31.53
2018-02-10T01:33:45.342Z,30.60
2018-02-10T01:36:13.602Z,31.30
2018-02-10T01:38:41.898Z,28.97
2018-02-10T01:41:10.166Z,30.63
2018-02-10T01:43:38.433Z,30.20
2018-02-10T01:46:06.691Z,31.53
2018-02-10T01:48:35.006Z,30.17
2018-02-10T01:51:03.332Z,27.87
2018-02-10T01:53:32.508Z,31.97
2018-02-10T01:56:01.550Z,29.83
2018-02-10T01:58:29.936Z,31.27
2018-02-10T02:00:58.205Z,29.87
2018-02-10T02:03:26.471Z,31.47
2018-02-10T02:05:54.758Z,31.53
2018-02-10T02:08:23.034Z,30.20
2018-02-10T02:10:51.309Z,31.73
2018-02-10T02:13:19.689Z,31.13
2018-02-10T02:15:47.970Z,30.70
2018-02-10T02:18:16.236Z,31.40
2018-02-10T02:20:44.520Z,32.33
2018-02-10T02:23:12.849Z,31.50
2018-02-10T02:25:41.074Z,30.30
2018-02-10T02:28:09.446Z,31.37
2018-02-10T02:30:37.696Z,31.83
2018-02-10T02:33:05.940Z,32.67
2018-02-10T02:35:34.213Z,32.43
2018-02-10T02:38:02.637Z,32.27
2018-02-10T02:40:30.891Z,32.97
2018-02-10T02:42:59.150Z,32.20
2018-02-10T02:45:28.178Z,32.70
2018-02-10T02:47:56.443Z,32.17
2018-02-10T02:50:24.711Z,30.80
2018-02-10T02:52:52.996Z,30.53
2018-02-10T02:55:21.375Z,30.73
2018-02-10T02:57:49.631Z,32.80
2018-02-10T03:00:17.989Z,33.47
2018-02-10T03:02:46.232Z,30.83
2018-02-10T03:05:14.506Z,31.53
2018-02-10T03:07:42.809Z,31.10
2018-02-10T03:10:11.051Z,31.50
2018-02-10T03:12:39.359Z,33.77
2018-02-10T03:15:07.640Z,34.67
2018-02-10T03:17:36.043Z,37.57
2018-02-10T03:20:04.306Z,37.33
2018-02-10T03:22:33.383Z,33.90
2018-02-10T03:25:01.958Z,36.63
2018-02-10T03:27:30.254Z,36.37
2018-02-10T03:29:58.623Z,37.97
2018-02-10T03:32:27.715Z,39.67
2018-02-10T03:34:55.991Z,38.40
2018-02-10T03:37:25.236Z,38.17
2018-02-10T03:39:53.486Z,39.13
2018-02-10T03:42:21.754Z,37.77
2018-02-10T03:44:50.770Z,40.47
2018-02-10T03:47:19.038Z,33.33
2018-02-10T03:49:47.348Z,33.33
2018-02-10T03:52:15.619Z,37.27
2018-02-10T03:54:43.882Z,35.80
2018-02-10T03:57:12.156Z,32.63
2018-02-10T03:59:40.407Z,31.43
2018-02-10T04:02:08.749Z,31.50
2018-02-10T04:04:37.819Z,31.53
2018-02-10T04:07:06.075Z,32.17
2018-02-10T04:09:34.346Z,33.27
2018-02-10T04:12:02.647Z,32.63
2018-02-10T04:14:30.924Z,32.93
2018-02-10T04:16:59.183Z,33.30
2018-02-10T04:19:27.450Z,35.47
2018-02-10T04:21:55.712Z,33.33
2018-02-10T04:24:24.014Z,34.37
2018-02-10T04:26:52.354Z,33.63
2018-02-10T04:29:21.378Z,36.00
2018-02-10T04:31:49.631Z,36.73
2018-02-10T04:34:17.911Z,37.10
2018-02-10T04:36:46.179Z,36.20
2018-02-10T04:39:14.473Z,37.27
2018-02-10T04:41:42.739Z,38.83
2018-02-10T04:44:11.932Z,37.37
2018-02-10T04:46:40.200Z,36.47
2018-02-10T04:49:08.495Z,37.17
2018-02-10T04:51:36.773Z,36.40
2018-02-10T04:54:05.032Z,37.77
2018-02-10T04:56:33.308Z,34.40
2018-02-10T04:59:01.570Z,38.10
2018-02-10T05:01:29.831Z,37.07
2018-02-10T05:03:58.118Z,35.67
2018-02-10T05:06:26.402Z,35.10
2018-02-10T05:08:54.755Z,35.57
2018-02-10T05:11:23.882Z,36.13
2018-02-10T05:13:52.175Z,32.97
2018-02-10T05:16:20.449Z,33.27
2018-02-10T05:18:48.759Z,35.33
2018-02-10T05:21:17.038Z,32.53
2018-02-10T05:23:46.120Z,31.77
2018-02-10T05:26:15.164Z,33.60
2018-02-10T05:28:43.463Z,32.43
2018-02-10T05:31:11.747Z,32.50
2018-02-10T05:33:40.051Z,32.47
2018-02-10T05:36:09.087Z,28.57
2018-02-10T05:38:37.359Z,29.50
2018-02-10T05:41:05.631Z,30.60
2018-02-10T05:43:33.908Z,29.33
2018-02-10T05:46:02.180Z,27.90
2018-02-10T05:48:30.489Z,30.10
2018-02-10T05:50:58.739Z,29.37
2018-02-10T05:53:26.997Z,28.07
2018-02-10T05:55:55.298Z,28.70
2018-02-10T05:58:23.604Z,29.60
2018-02-10T06:00:51.985Z,30.33
2018-02-10T06:03:20.246Z,31.93
2018-02-10T06:05:48.511Z,31.33
2018-02-10T06:08:16.837Z,31.27
2018-02-10T06:10:45.929Z,31.77
2018-02-10T06:13:14.156Z,31.43
2018-02-10T06:15:42.460Z,30.93
2018-02-10T06:18:10.799Z,29.03
2018-02-10T06:20:39.120Z,30.20
2018-02-10T06:23:08.182Z,30.60
2018-02-10T06:25:36.433Z,29.30
2018-02-10T06:28:04.748Z,28.97
2018-02-10T06:30:33.018Z,28.37
2018-02-10T06:33:02.113Z,27.10
2018-02-10T06:35:30.372Z,29.10
2018-02-10T06:37:58.671Z,28.73
2018-02-10T06:40:27.719Z,28.50
2018-02-10T06:42:56.007Z,26.67
2018-02-10T06:45:24.351Z,29.27
2018-02-10T06:47:52.654Z,27.07
2018-02-10T06:50:21.021Z,30.10
2018-02-10T06:52:49.264Z,27.00
2018-02-10T06:55:17.530Z,29.33
2018-02-10T06:57:46.554Z,26.90
2018-02-10T07:00:14.846Z,28.20
2018-02-10T07:02:43.117Z,27.87
2018-02-10T07:05:11.562Z,28.67
2018-02-10T07:07:39.827Z,27.37
2018-02-10T07:10:09.792Z,30.10
2018-02-10T07:12:38.108Z,27.73
2018-02-10T07:15:07.146Z,28.37
2018-02-10T07:17:35.558Z,27.60
2018-02-10T07:20:04.395Z,26.57
2018-02-10T07:22:33.063Z,28.23
2018-02-10T07:25:01.874Z,27.73
2018-02-10T07:27:30.162Z,28.73
2018-02-10T07:29:59.053Z,28.77
2018-02-10T07:32:27.548Z,26.80
2018-02-10T07:34:55.850Z,30.13
2018-02-10T07:37:24.222Z,27.50
2018-02-10T07:39:52.491Z,29.07
2018-02-10T07:42:22.424Z,28.50
2018-02-10T07:44:51.443Z,28.67
2018-02-10T07:47:19.852Z,29.90
2018-02-10T07:49:48.124Z,30.10
2018-02-10T07:52:16.391Z,30.50
2018-02-10T07:54:44.972Z,30.40
2018-02-10T07:57:14.039Z,29.53
2018-02-10T07:59:43.060Z,31.47
2018-02-10T08:02:11.452Z,30.67
2018-02-10T08:04:39.829Z,29.37
2018-02-10T08:07:08.108Z,29.27
2018-02-10T08:09:36.532Z,29.47
2018-02-10T08:12:04.910Z,30.20
2018-02-10T08:14:33.239Z,28.70
2018-02-10T08:17:01.537Z,27.93
2018-02-10T08:19:29.766Z,28.17
2018-02-10T08:21:58.170Z,28.67
2018-02-10T08:24:26.524Z,29.53
2018-02-10T08:26:54.814Z,28.70
2018-02-10T18:55:03.613Z,11.97
2018-02-10T18:57:31.895Z,10.80
2018-02-10T19:00:00.335Z,11.47
2018-02-10T19:02:28.659Z,10.80
2018-02-10T19:04:57.725Z,10.27
2018-02-10T19:07:26.042Z,10.00
2018-02-10T19:09:54.321Z,9.73
2018-02-10T19:12:23.396Z,9.67
2018-02-10T19:14:51.680Z,10.87
2018-02-10T19:17:20.858Z,9.17
2018-02-10T19:19:49.153Z,9.70
2018-02-10T19:22:17.419Z,9.87
2018-02-10T19:24:45.651Z,9.03
2018-02-10T19:27:14.720Z,8.77
2018-02-10T19:29:43.010Z,7.90
2018-02-10T19:32:11.308Z,8.50
2018-02-10T19:34:39.580Z,8.07
2018-02-10T19:37:07.883Z,7.63
2018-02-10T19:39:36.144Z,8.10
2018-02-10T19:42:04.440Z,8.77
2018-02-10T19:44:33.527Z,7.73
2018-02-10T19:47:02.668Z,8.37
2018-02-10T19:49:31.000Z,7.67
2018-02-10T19:51:59.274Z,7.70
2018-02-10T19:54:27.548Z,7.37
2018-02-10T19:56:55.828Z,6.23
2018-02-10T19:59:24.165Z,6.00
2018-02-10T20:01:52.480Z,6.77
2018-02-10T20:04:20.756Z,5.30
2018-02-10T20:06:49.128Z,5.73
2018-02-10T20:09:17.392Z,5.97
2018-02-10T20:11:45.662Z,6.37
2018-02-10T20:14:14.000Z,6.00
2018-02-10T20:16:42.300Z,5.40
2018-02-10T20:19:10.609Z,6.00
2018-02-10T20:21:38.913Z,5.37
2018-02-10T20:24:07.905Z,5.87
2018-02-10T20:26:36.253Z,5.33
2018-02-10T20:29:04.519Z,5.70
2018-02-10T20:31:32.906Z,6.03
2018-02-10T20:34:01.182Z,5.93
2018-02-10T20:36:29.458Z,5.17
2018-02-10T20:38:57.734Z,5.63
2018-02-10T20:41:26.054Z,6.07
2018-02-10T20:43:54.309Z,6.20
2018-02-10T20:46:22.635Z,6.53
2018-02-10T20:48:50.913Z,7.00
2018-02-10T20:51:19.189Z,6.17
2018-02-10T20:53:48.277Z,6.43
2018-02-10T20:56:16.562Z,5.47
2018-02-10T20:58:44.856Z,6.63
2018-02-10T21:01:13.127Z,7.13
2018-02-10T21:03:41.519Z,7.83
2018-02-10T21:06:09.766Z,7.43
2018-02-10T21:08:38.067Z,6.57
2018-02-10T21:11:07.154Z,6.60
2018-02-10T21:13:35.447Z,5.87
2018-02-10T21:16:04.530Z,6.17
2018-02-10T21:18:33.603Z,5.73
2018-02-10T21:21:01.894Z,5.87
2018-02-10T21:23:30.171Z,5.80
2018-02-10T21:25:59.232Z,5.60
2018-02-10T21:28:27.515Z,6.10
2018-02-10T21:30:55.815Z,5.73
2018-02-10T21:33:24.088Z,5.50
2018-02-10T21:35:52.412Z,5.10
2018-02-10T21:38:20.700Z,5.23
2018-02-10T21:40:49.016Z,5.10
2018-02-10T21:43:17.273Z,6.03
2018-02-10T21:45:45.568Z,5.13
2018-02-10T21:48:13.908Z,5.50
2018-02-10T21:50:42.180Z,6.23
2018-02-10T21:53:10.556Z,5.87
2018-02-10T21:55:38.977Z,5.77
2018-02-10T21:58:08.045Z,5.53
2018-02-10T22:00:36.319Z,6.20
2018-02-10T22:03:04.597Z,6.50
2018-02-10T22:05:32.903Z,5.23
2018-02-10T22:08:01.186Z,5.40
2018-02-10T22:10:30.244Z,5.60
2018-02-10T22:12:58.625Z,5.67
2018-02-10T22:15:26.909Z,6.57
2018-02-10T22:17:55.708Z,5.40
2018-02-10T22:20:23.958Z,5.77
2018-02-10T22:22:52.255Z,6.10
2018-02-10T22:25:20.522Z,6.50
2018-02-10T22:27:48.809Z,6.60
2018-02-10T22:30:17.155Z,6.27
2018-02-10T22:32:45.438Z,5.60
2018-02-10T22:35:13.750Z,6.43
2018-02-10T22:37:42.806Z,5.87
2018-02-10T22:40:11.110Z,5.80
2018-02-10T22:42:39.950Z,5.90
2018-02-10T22:45:08.261Z,5.60
2018-02-10T22:47:37.455Z,5.90
2018-02-10T22:50:05.752Z,5.97
2018-02-10T22:52:34.008Z,6.30
2018-02-10T22:55:02.330Z,5.97
2018-02-10T22:57:30.590Z,5.90
2018-02-10T22:59:59.675Z,5.70
2018-02-10T23:02:28.043Z,5.80
2018-02-10T23:04:56.345Z,5.43
2018-02-10T23:07:24.799Z,5.23
2018-02-10T23:09:53.071Z,5.20
2018-02-10T23:12:21.335Z,5.40
2018-02-10T23:14:49.641Z,5.33
2018-02-10T23:17:18.668Z,6.17
2018-02-10T23:19:46.992Z,5.50
2018-02-10T23:22:15.240Z,5.17
2018-02-10T23:24:43.520Z,6.03
2018-02-10T23:27:11.825Z,5.90
2018-02-10T23:29:40.987Z,5.80
2018-02-10T23:32:09.229Z,6.40
2018-02-10T23:34:37.528Z,5.07
2018-02-10T23:37:05.798Z,5.73
2018-02-10T23:39:34.081Z,5.30
2018-02-10T23:42:02.365Z,5.70
2018-02-10T23:44:30.664Z,5.57
2018-02-10T23:46:58.926Z,5.47
2018-02-10T23:49:27.232Z,5.80
2018-02-10T23:51:55.674Z,5.93
2018-02-10T23:54:24.766Z,5.53
2018-02-10T23:56:53.051Z,6.03
2018-02-10T23:59:21.332Z,5.67
